Time;durP1;ratioP1;P1;durP2;ratioP2;P2;SDS_P1;SDS_P2;PMS_P1;PMS_P2;Temp;Humidity;BMP_temperature;BMP_pressure;BME280_temperature;BME280_humidity;BME280_pressure;Samples;Min_cycle;Max_cycle;Signal;HPM_P1;HPM_P2
2023/02/06 00:01:14;;;;;;;16.93;4.97;;;;;;;;;;5066203;28;20185;-46
2023/02/06 00:03:40;;;;;;;24.50;4.55;;;;;;;;;;5063279;28;20464;-47
2023/02/06 00:06:06;;;;;;;20.98;5.45;;;;;;;;;;5063808;28;20193;-47
2023/02/06 00:08:33;;;;;;;23.30;4.20;;;;;;;;;;5064801;28;20204;-46
2023/02/06 00:11:02;;;;;;;26.63;4.78;;;;;;;;;;5062734;28;20166;-47
2023/02/06 00:13:28;;;;;;;14.73;4.00;;;;;;;;;;5064110;28;20178;-46
2023/02/06 00:15:54;;;;;;;10.33;3.57;;;;;;;;;;5061792;28;20209;-47
2023/02/06 00:18:19;;;;;;;14.50;4.10;;;;;;;;;;5068685;28;20408;-46
2023/02/06 00:20:45;;;;;;;17.63;3.93;;;;;;;;;;5062998;28;20451;-47
2023/02/06 00:23:11;;;;;;;10.47;3.97;;;;;;;;;;5061367;28;20406;-46
2023/02/06 00:25:37;;;;;;;8.07;3.07;;;;;;;;;;5063005;28;20503;-47
2023/02/06 00:28:03;;;;;;;21.17;4.40;;;;;;;;;;5062207;28;20409;-47
2023/02/06 00:30:29;;;;;;;10.82;3.33;;;;;;;;;;5064120;28;20467;-47
2023/02/06 00:32:55;;;;;;;20.87;4.67;;;;;;;;;;5066560;28;20266;-47
2023/02/06 00:35:21;;;;;;;12.63;2.60;;;;;;;;;;5066060;28;20468;-47
2023/02/06 00:37:47;;;;;;;12.83;4.57;;;;;;;;;;5061473;28;20495;-47
2023/02/06 00:40:13;;;;;;;10.10;4.67;;;;;;;;;;5059024;28;20409;-47
2023/02/06 00:42:39;;;;;;;15.30;4.30;;;;;;;;;;5065207;28;20408;-47
2023/02/06 00:45:05;;;;;;;12.60;3.40;;;;;;;;;;5064253;28;21041;-46
2023/02/06 00:47:32;;;;;;;18.23;4.28;;;;;;;;;;5064287;28;20433;-47
2023/02/06 00:49:57;;;;;;;12.65;4.00;;;;;;;;;;5064352;28;20181;-46
2023/02/06 00:52:23;;;;;;;25.33;5.40;;;;;;;;;;5064850;28;20553;-47
2023/02/06 00:54:49;;;;;;;17.57;4.80;;;;;;;;;;5058687;28;21000;-47
2023/02/06 00:57:15;;;;;;;27.83;6.55;;;;;;;;;;5065251;28;20401;-47
2023/02/06 00:59:41;;;;;;;16.00;4.50;;;;;;;;;;5054716;28;20596;-46
2023/02/06 01:02:07;;;;;;;12.53;3.40;;;;;;;;;;5062775;28;20401;-46
2023/02/06 01:04:33;;;;;;;22.67;5.63;;;;;;;;;;5062869;28;20483;-47
2023/02/06 01:06:59;;;;;;;27.27;5.27;;;;;;;;;;5062162;28;20927;-46
2023/02/06 01:09:25;;;;;;;22.40;4.77;;;;;;;;;;5062598;28;20912;-46
2023/02/06 01:11:51;;;;;;;17.13;3.95;;;;;;;;;;5054814;28;20423;-46
2023/02/06 01:14:17;;;;;;;27.38;4.25;;;;;;;;;;5066619;28;20281;-47
2023/02/06 01:16:43;;;;;;;32.50;5.37;;;;;;;;;;5058477;28;20300;-46
2023/02/06 01:19:09;;;;;;;23.23;4.93;;;;;;;;;;5059292;28;20421;-46
2023/02/06 01:21:36;;;;;;;20.93;4.97;;;;;;;;;;5062690;28;20179;-46
2023/02/06 01:24:02;;;;;;;14.85;5.47;;;;;;;;;;5060203;28;20959;-47
2023/02/06 01:26:27;;;;;;;37.17;5.47;;;;;;;;;;5062595;28;20195;-47
2023/02/06 01:28:54;;;;;;;19.60;5.20;;;;;;;;;;5065528;28;20486;-46
2023/02/06 01:31:23;;;;;;;11.00;4.13;;;;;;;;;;5065640;28;20412;-47
2023/02/06 01:33:50;;;;;;;16.02;4.65;;;;;;;;;;5059457;28;20228;-46
2023/02/06 01:36:16;;;;;;;23.35;4.57;;;;;;;;;;5057501;28;20211;-47
2023/02/06 01:38:42;;;;;;;18.63;3.97;;;;;;;;;;5056186;28;20167;-46
2023/02/06 01:41:09;;;;;;;22.45;4.65;;;;;;;;;;5063380;28;20163;-46
2023/02/06 01:43:36;;;;;;;15.27;4.50;;;;;;;;;;5062943;28;20257;-46
2023/02/06 01:46:02;;;;;;;19.35;4.82;;;;;;;;;;5061972;28;20193;-46
2023/02/06 01:48:34;;;;;;;10.37;3.53;;;;;;;;;;5063685;28;20194;-46
2023/02/06 01:51:00;;;;;;;15.20;3.83;;;;;;;;;;5060030;28;20409;-47
2023/02/06 01:53:26;;;;;;;27.15;4.07;;;;;;;;;;5062380;28;20755;-47
2023/02/06 01:55:54;;;;;;;17.67;4.30;;;;;;;;;;5062623;28;20225;-46
2023/02/06 01:58:26;;;;;;;19.35;4.63;;;;;;;;;;5064082;28;20192;-46
2023/02/06 02:00:52;;;;;;;24.08;4.40;;;;;;;;;;5071773;28;20698;-47
2023/02/06 02:03:19;;;;;;;23.23;4.77;;;;;;;;;;5070654;28;20245;-46
2023/02/06 02:05:45;;;;;;;29.02;5.35;;;;;;;;;;5070888;28;20432;-46
2023/02/06 02:08:15;;;;;;;16.67;4.30;;;;;;;;;;5071523;28;20166;-47
2023/02/06 02:10:41;;;;;;;24.88;4.35;;;;;;;;;;5072214;28;20166;-47
2023/02/06 02:13:07;;;;;;;17.48;4.05;;;;;;;;;;5053314;28;20183;-46
2023/02/06 02:15:54;;;;;;;16.83;4.60;;;;;;;;;;5066671;28;20704;-46
2023/02/06 02:18:26;;;;;;;15.65;4.78;;;;;;;;;;5034673;28;20190;-47
2023/02/06 02:20:58;;;;;;;35.75;5.82;;;;;;;;;;5060563;28;20178;-46
2023/02/06 02:23:36;;;;;;;20.77;4.22;;;;;;;;;;5049107;28;20185;-46
2023/02/06 02:26:08;;;;;;;18.75;4.85;;;;;;;;;;5057363;28;20194;-46
2023/02/06 02:28:34;;;;;;;22.58;4.93;;;;;;;;;;5062610;28;20179;-47
2023/02/06 02:31:12;;;;;;;25.17;4.13;;;;;;;;;;5050433;28;20264;-46
2023/02/06 02:33:41;;;;;;;16.42;4.32;;;;;;;;;;5062275;28;20419;-47
2023/02/06 02:36:29;;;;;;;14.23;4.32;;;;;;;;;;5059915;28;20206;-46
2023/02/06 02:39:04;;;;;;;21.60;4.75;;;;;;;;;;5059689;28;20184;-46
2023/02/06 02:41:35;;;;;;;17.95;4.43;;;;;;;;;;5060372;28;20183;-47
2023/02/06 02:44:04;;;;;;;20.80;4.15;;;;;;;;;;5059371;28;20182;-46
2023/02/06 02:46:38;;;;;;;15.85;4.70;;;;;;;;;;5065543;28;20653;-47
2023/02/06 02:49:06;;;;;;;18.23;4.82;;;;;;;;;;5062899;28;20341;-47
2023/02/06 02:51:33;;;;;;;15.93;4.10;;;;;;;;;;5057573;28;20225;-47
2023/02/06 02:53:59;;;;;;;28.75;4.93;;;;;;;;;;5057514;28;20185;-47
2023/02/06 02:56:25;;;;;;;14.30;6.67;;;;;;;;;;5060836;28;20205;-46
2023/02/06 02:59:02;;;;;;;18.33;5.55;;;;;;;;;;5063500;28;20409;-47
2023/02/06 03:01:33;;;;;;;21.17;5.30;;;;;;;;;;5059891;28;20247;-47
2023/02/06 03:04:03;;;;;;;24.10;5.80;;;;;;;;;;5060575;28;20175;-46
2023/02/06 03:06:43;;;;;;;11.18;4.05;;;;;;;;;;5061270;28;20217;-47
2023/02/06 03:09:20;;;;;;;21.23;4.70;;;;;;;;;;5063249;28;20176;-47
2023/02/06 03:11:50;;;;;;;16.77;4.63;;;;;;;;;;5053147;28;20183;-47
2023/02/06 03:14:21;;;;;;;34.75;5.55;;;;;;;;;;5064352;28;20193;-47
2023/02/06 03:16:51;;;;;;;26.77;6.38;;;;;;;;;;5059951;28;20186;-47
2023/02/06 03:19:23;;;;;;;19.13;5.10;;;;;;;;;;5057401;28;20569;-46
2023/02/06 03:21:49;;;;;;;18.73;4.85;;;;;;;;;;5059659;28;20194;-46
2023/02/06 03:24:36;;;;;;;20.50;4.90;;;;;;;;;;5058583;28;20213;-47
2023/02/06 03:27:04;;;;;;;13.15;3.83;;;;;;;;;;5054181;28;20171;-47
2023/02/06 03:29:32;;;;;;;20.63;4.88;;;;;;;;;;5061609;28;20597;-46
2023/02/06 03:32:05;;;;;;;20.08;4.35;;;;;;;;;;5061354;28;20708;-47
2023/02/06 03:34:53;;;;;;;14.68;3.92;;;;;;;;;;5063840;28;20209;-47
2023/02/06 03:37:20;;;;;;;12.18;4.45;;;;;;;;;;5064049;28;20269;-47
2023/02/06 03:39:46;;;;;;;19.00;4.85;;;;;;;;;;5061564;28;20637;-46
2023/02/06 03:42:14;;;;;;;21.43;5.00;;;;;;;;;;5067163;28;20173;-47
2023/02/06 03:44:43;;;;;;;20.40;5.43;;;;;;;;;;5061663;28;20430;-47
2023/02/06 03:47:10;;;;;;;22.00;4.80;;;;;;;;;;5061505;28;20194;-46
2023/02/06 03:49:37;;;;;;;15.57;4.00;;;;;;;;;;5063951;28;20838;-47
2023/02/06 03:52:06;;;;;;;18.25;5.05;;;;;;;;;;5063370;28;20513;-47
2023/02/06 03:54:33;;;;;;;18.27;4.97;;;;;;;;;;5064529;28;20755;-47
2023/02/06 03:57:00;;;;;;;16.30;5.55;;;;;;;;;;5066581;28;20211;-47
2023/02/06 03:59:26;;;;;;;21.25;4.40;;;;;;;;;;5067500;28;20189;-47
2023/02/06 04:01:54;;;;;;;20.13;6.07;;;;;;;;;;5062175;28;20257;-47
2023/02/06 04:04:27;;;;;;;29.98;5.43;;;;;;;;;;5058121;28;20437;-46
2023/02/06 04:06:53;;;;;;;29.05;6.93;;;;;;;;;;5066391;28;20261;-47
2023/02/06 04:09:19;;;;;;;21.17;5.70;;;;;;;;;;5063963;28;20191;-47
2023/02/06 04:11:45;;;;;;;26.47;6.07;;;;;;;;;;5066259;28;20220;-46
2023/02/06 04:14:11;;;;;;;15.10;5.30;;;;;;;;;;5072929;28;20423;-47
2023/02/06 04:16:37;;;;;;;20.47;5.27;;;;;;;;;;5074880;28;20509;-45
2023/02/06 04:19:03;;;;;;;34.17;6.77;;;;;;;;;;5074914;28;20896;-46
2023/02/06 04:21:29;;;;;;;18.93;5.43;;;;;;;;;;5073442;28;20825;-47
2023/02/06 04:23:55;;;;;;;13.97;5.67;;;;;;;;;;5073252;28;21081;-47
2023/02/06 04:26:21;;;;;;;13.23;5.40;;;;;;;;;;5074005;28;20427;-47
2023/02/06 04:28:47;;;;;;;30.90;6.37;;;;;;;;;;5074312;28;20409;-47
2023/02/06 04:31:13;;;;;;;21.13;5.00;;;;;;;;;;5073869;28;20411;-47
2023/02/06 04:33:38;;;;;;;34.10;7.10;;;;;;;;;;5073145;28;20420;-47
2023/02/06 04:36:06;;;;;;;19.37;5.00;;;;;;;;;;5073787;28;20502;-47
2023/02/06 04:38:32;;;;;;;23.48;6.75;;;;;;;;;;5073846;28;20485;-47
2023/02/06 04:41:05;;;;;;;21.40;6.07;;;;;;;;;;5053807;28;20582;-47
2023/02/06 04:43:31;;;;;;;21.73;6.93;;;;;;;;;;5053584;28;20437;-47
2023/02/06 04:45:57;;;;;;;22.60;6.15;;;;;;;;;;5052209;28;20721;-47
2023/02/06 04:48:23;;;;;;;18.20;6.20;;;;;;;;;;5053429;28;20261;-47
2023/02/06 04:50:49;;;;;;;24.27;5.70;;;;;;;;;;5053415;28;20401;-47
2023/02/06 04:53:15;;;;;;;12.52;5.57;;;;;;;;;;5053536;28;20847;-47
2023/02/06 04:55:41;;;;;;;14.20;6.15;;;;;;;;;;5052583;28;20217;-46
2023/02/06 04:58:07;;;;;;;19.98;8.43;;;;;;;;;;5053539;28;20166;-47
2023/02/06 05:00:34;;;;;;;17.13;7.05;;;;;;;;;;5053712;28;20195;-47
2023/02/06 05:03:00;;;;;;;23.55;5.80;;;;;;;;;;5053076;28;20164;-47
2023/02/06 05:05:25;;;;;;;20.17;5.90;;;;;;;;;;5052387;28;20232;-47
2023/02/06 05:07:51;;;;;;;21.00;6.43;;;;;;;;;;5053069;28;20489;-47
2023/02/06 05:10:17;;;;;;;16.17;6.60;;;;;;;;;;5053112;28;20402;-46
2023/02/06 05:12:44;;;;;;;21.57;5.80;;;;;;;;;;5053041;28;20405;-47
2023/02/06 05:15:10;;;;;;;18.83;6.00;;;;;;;;;;5052211;28;20460;-47
2023/02/06 05:17:36;;;;;;;9.90;5.17;;;;;;;;;;5052248;28;20171;-47
2023/02/06 05:20:02;;;;;;;14.20;5.30;;;;;;;;;;5051201;28;20434;-46
2023/02/06 05:22:28;;;;;;;15.32;6.25;;;;;;;;;;5062844;28;20409;-47
2023/02/06 05:24:54;;;;;;;20.50;5.83;;;;;;;;;;5052191;28;20204;-49
2023/02/06 05:27:20;;;;;;;21.27;6.00;;;;;;;;;;5063515;28;20418;-47
2023/02/06 05:29:46;;;;;;;15.73;5.97;;;;;;;;;;5057906;28;20458;-47
2023/02/06 05:32:12;;;;;;;18.17;7.33;;;;;;;;;;5060174;28;20417;-49
2023/02/06 05:34:38;;;;;;;13.73;4.80;;;;;;;;;;5062162;28;20993;-48
2023/02/06 05:37:04;;;;;;;16.57;5.50;;;;;;;;;;5063259;28;20898;-47
2023/02/06 05:39:30;;;;;;;20.40;6.00;;;;;;;;;;5062112;28;20788;-47
2023/02/06 05:41:56;;;;;;;16.57;5.10;;;;;;;;;;5060427;28;20429;-47
2023/02/06 05:44:22;;;;;;;23.33;5.87;;;;;;;;;;5065166;28;20690;-48
2023/02/06 05:46:48;;;;;;;17.87;5.40;;;;;;;;;;5060507;28;20417;-48
2023/02/06 05:49:14;;;;;;;12.80;4.93;;;;;;;;;;5058228;28;20413;-48
2023/02/06 05:51:40;;;;;;;11.90;5.40;;;;;;;;;;5060708;28;20412;-48
2023/02/06 05:54:06;;;;;;;12.60;5.50;;;;;;;;;;5059573;28;20186;-48
2023/02/06 05:56:32;;;;;;;13.03;5.80;;;;;;;;;;5061849;28;20522;-49
2023/02/06 05:58:58;;;;;;;14.60;5.47;;;;;;;;;;5062990;28;20412;-48
2023/02/06 06:01:24;;;;;;;16.40;6.05;;;;;;;;;;5063314;28;20424;-47
2023/02/06 06:03:50;;;;;;;13.30;5.47;;;;;;;;;;5056395;28;20166;-47
2023/02/06 06:06:16;;;;;;;14.57;6.15;;;;;;;;;;5055551;28;20677;-47
2023/02/06 06:08:42;;;;;;;14.60;5.87;;;;;;;;;;5062958;28;20198;-48
2023/02/06 06:11:08;;;;;;;23.40;6.20;;;;;;;;;;5061458;28;20491;-47
2023/02/06 06:13:34;;;;;;;17.07;7.20;;;;;;;;;;5051067;28;20413;-47
2023/02/06 06:16:00;;;;;;;18.52;6.60;;;;;;;;;;5058923;28;20467;-48
2023/02/06 06:18:26;;;;;;;13.95;6.50;;;;;;;;;;5061478;28;20277;-47
2023/02/06 06:20:53;;;;;;;17.90;7.20;;;;;;;;;;5056783;28;20178;-48
2023/02/06 06:23:19;;;;;;;14.77;6.55;;;;;;;;;;5061889;28;20595;-48
2023/02/06 06:25:45;;;;;;;35.57;8.30;;;;;;;;;;5060101;28;20268;-48
2023/02/06 06:28:11;;;;;;;27.73;7.65;;;;;;;;;;5059044;28;20442;-49
2023/02/06 06:30:37;;;;;;;17.67;7.40;;;;;;;;;;5061262;28;20212;-47
2023/02/06 06:33:03;;;;;;;27.77;7.97;;;;;;;;;;5059130;28;20412;-49
2023/02/06 06:35:30;;;;;;;29.55;10.10;;;;;;;;;;5058978;28;20312;-48
2023/02/06 06:37:55;;;;;;;19.20;8.85;;;;;;;;;;5058972;28;20187;-47
2023/02/06 06:40:21;;;;;;;35.90;8.80;;;;;;;;;;5064730;28;20185;-48
2023/02/06 06:42:47;;;;;;;32.17;9.00;;;;;;;;;;5059038;28;20409;-48
2023/02/06 06:45:13;;;;;;;48.40;9.70;;;;;;;;;;5057141;28;20959;-48
2023/02/06 06:47:39;;;;;;;31.60;9.30;;;;;;;;;;5060382;28;20798;-47
2023/02/06 06:50:06;;;;;;;32.80;9.57;;;;;;;;;;5059563;28;20413;-48
2023/02/06 06:52:32;;;;;;;24.55;8.80;;;;;;;;;;5061834;28;20221;-48
2023/02/06 06:54:58;;;;;;;35.13;10.07;;;;;;;;;;5062066;28;20607;-48
2023/02/06 06:57:24;;;;;;;33.10;8.60;;;;;;;;;;5063558;28;20404;-46
2023/02/06 06:59:50;;;;;;;36.53;8.80;;;;;;;;;;5058484;28;20443;-49
2023/02/06 07:02:16;;;;;;;41.50;9.30;;;;;;;;;;5055656;28;20421;-49
2023/02/06 07:04:42;;;;;;;39.92;10.15;;;;;;;;;;5053307;28;20439;-48
2023/02/06 07:07:08;;;;;;;34.83;8.57;;;;;;;;;;5061668;28;20162;-48
2023/02/06 07:09:34;;;;;;;40.47;10.27;;;;;;;;;;5056422;28;20418;-49
2023/02/06 07:12:00;;;;;;;39.10;11.20;;;;;;;;;;5064878;28;20250;-48
2023/02/06 07:14:26;;;;;;;37.50;9.65;;;;;;;;;;5062545;28;20797;-47
2023/02/06 07:16:52;;;;;;;31.03;9.77;;;;;;;;;;5060888;28;20166;-47
2023/02/06 07:19:18;;;;;;;37.28;8.88;;;;;;;;;;5066228;28;20415;-47
2023/02/06 07:21:44;;;;;;;29.37;9.23;;;;;;;;;;5064723;28;20648;-47
2023/02/06 07:24:10;;;;;;;41.97;9.03;;;;;;;;;;5062470;28;20467;-47
2023/02/06 07:26:36;;;;;;;32.80;8.97;;;;;;;;;;5071738;28;20408;-48
2023/02/06 07:29:02;;;;;;;22.00;8.30;;;;;;;;;;5063152;28;20444;-49
2023/02/06 07:31:28;;;;;;;25.40;8.77;;;;;;;;;;5063907;28;20422;-49
2023/02/06 07:33:54;;;;;;;42.95;9.43;;;;;;;;;;5062047;28;20908;-48
2023/02/06 07:36:20;;;;;;;45.57;11.60;;;;;;;;;;5068720;28;20202;-48
2023/02/06 07:38:46;;;;;;;33.67;8.80;;;;;;;;;;5062889;28;20404;-48
2023/02/06 07:41:11;;;;;;;28.93;10.37;;;;;;;;;;5056982;28;20405;-46
2023/02/06 07:43:38;;;;;;;51.00;9.77;;;;;;;;;;5062878;28;20380;-51
2023/02/06 07:46:04;;;;;;;24.67;7.35;;;;;;;;;;5062389;28;20428;-47
2023/02/06 07:48:31;;;;;;;27.00;8.35;;;;;;;;;;5064543;28;20212;-44
2023/02/06 07:51:03;;;;;;;35.38;9.98;;;;;;;;;;5066419;28;20188;-44
2023/02/06 07:53:28;;;;;;;50.03;11.65;;;;;;;;;;5066776;28;20564;-45
2023/02/06 07:55:54;;;;;;;29.47;9.33;;;;;;;;;;5061308;28;20194;-48
2023/02/06 07:58:20;;;;;;;44.77;11.10;;;;;;;;;;5058687;28;20925;-44
2023/02/06 08:00:46;;;;;;;28.27;9.83;;;;;;;;;;5063097;28;20977;-44
2023/02/06 08:03:13;;;;;;;32.38;8.20;;;;;;;;;;5066133;28;20751;-44
2023/02/06 08:05:39;;;;;;;26.70;8.57;;;;;;;;;;5064824;28;20178;-44
2023/02/06 08:08:06;;;;;;;27.40;8.13;;;;;;;;;;5061678;28;20185;-44
2023/02/06 08:10:31;;;;;;;22.33;8.15;;;;;;;;;;5064885;28;20178;-48
2023/02/06 08:12:57;;;;;;;27.60;8.80;;;;;;;;;;5060691;28;20183;-44
2023/02/06 08:15:24;;;;;;;38.87;9.60;;;;;;;;;;5063803;28;20521;-44
2023/02/06 08:17:50;;;;;;;26.65;9.38;;;;;;;;;;5064440;28;20404;-45
2023/02/06 08:20:16;;;;;;;30.13;13.18;;;;;;;;;;5064307;28;20191;-45
2023/02/06 08:22:42;;;;;;;43.50;12.38;;;;;;;;;;5053739;28;20212;-45
2023/02/06 08:25:08;;;;;;;25.33;10.30;;;;;;;;;;5058442;28;20281;-45
2023/02/06 08:27:34;;;;;;;29.73;8.07;;;;;;;;;;5060084;28;20410;-44
2023/02/06 08:30:00;;;;;;;39.97;9.30;;;;;;;;;;5066971;28;20189;-45
2023/02/06 08:32:31;;;;;;;43.33;9.90;;;;;;;;;;5067765;28;20435;-45
2023/02/06 08:34:57;;;;;;;27.75;9.30;;;;;;;;;;5063314;28;20891;-47
2023/02/06 08:37:23;;;;;;;34.10;9.67;;;;;;;;;;5059553;28;20574;-45
2023/02/06 08:39:49;;;;;;;30.02;10.10;;;;;;;;;;5061636;28;20407;-44
2023/02/06 08:42:15;;;;;;;29.63;9.50;;;;;;;;;;5063065;28;20254;-45
2023/02/06 08:44:41;;;;;;;37.00;9.10;;;;;;;;;;5064262;28;20945;-45
2023/02/06 08:47:07;;;;;;;26.73;10.03;;;;;;;;;;5063896;28;20440;-45
2023/02/06 08:49:33;;;;;;;25.07;7.47;;;;;;;;;;5059631;28;20410;-46
2023/02/06 08:51:59;;;;;;;28.07;9.57;;;;;;;;;;5052264;28;20413;-47
2023/02/06 08:54:25;;;;;;;31.93;10.90;;;;;;;;;;5051829;28;20437;-45
2023/02/06 08:56:51;;;;;;;31.97;10.27;;;;;;;;;;5046908;28;20467;-46
2023/02/06 08:59:18;;;;;;;21.83;9.40;;;;;;;;;;5044016;28;20750;-44
2023/02/06 09:01:48;;;;;;;22.98;10.20;;;;;;;;;;5032102;28;20274;-48
2023/02/06 09:04:14;;;;;;;20.58;8.23;;;;;;;;;;5046708;28;20804;-46
2023/02/06 09:06:45;;;;;;;31.23;9.98;;;;;;;;;;5052861;28;20175;-47
2023/02/06 09:09:11;;;;;;;28.33;9.13;;;;;;;;;;5052971;28;20174;-44
2023/02/06 09:11:37;;;;;;;37.25;9.38;;;;;;;;;;5053090;28;20171;-44
2023/02/06 09:14:05;;;;;;;35.15;11.05;;;;;;;;;;5052194;28;20640;-45
2023/02/06 09:16:34;;;;;;;33.50;10.10;;;;;;;;;;5036633;28;20203;-44
2023/02/06 09:19:00;;;;;;;42.85;9.85;;;;;;;;;;5032919;28;20163;-44
2023/02/06 09:21:28;;;;;;;45.70;11.95;;;;;;;;;;5032672;28;20631;-44
2023/02/06 09:23:55;;;;;;;32.38;11.05;;;;;;;;;;5032371;28;20171;-46
2023/02/06 09:26:28;;;;;;;41.45;12.20;;;;;;;;;;5032857;28;20211;-45
2023/02/06 09:28:58;;;;;;;57.50;13.23;;;;;;;;;;5032752;28;20651;-46
2023/02/06 09:31:25;;;;;;;38.88;12.38;;;;;;;;;;5032346;28;20213;-47
2023/02/06 09:33:51;;;;;;;55.15;13.55;;;;;;;;;;5031609;28;20175;-45
2023/02/06 09:36:18;;;;;;;44.13;13.70;;;;;;;;;;5032584;28;20203;-45
2023/02/06 09:38:45;;;;;;;47.60;13.98;;;;;;;;;;5032726;28;20410;-44
2023/02/06 09:41:28;;;;;;;58.88;13.70;;;;;;;;;;5032400;28;20171;-45
2023/02/06 09:43:57;;;;;;;53.90;14.18;;;;;;;;;;5031598;28;20168;-45
2023/02/06 09:46:26;;;;;;;58.95;16.75;;;;;;;;;;5032008;28;20167;-45
2023/02/06 09:48:53;;;;;;;42.33;14.98;;;;;;;;;;5032422;28;20164;-44
2023/02/06 09:51:57;;;;;;;36.22;12.90;;;;;;;;;;5041195;28;20209;-45
2023/02/06 09:54:30;;;;;;;48.80;15.05;;;;;;;;;;4992815;28;20572;-46
2023/02/06 09:57:01;;;;;;;38.70;13.07;;;;;;;;;;4991889;28;20201;-46
2023/02/06 09:59:42;;;;;;;39.30;14.23;;;;;;;;;;5012842;28;20167;-47
2023/02/06 10:02:21;;;;;;;42.65;14.23;;;;;;;;;;5030986;28;20237;-46
2023/02/06 10:04:52;;;;;;;42.40;12.35;;;;;;;;;;5031318;28;20190;-47
2023/02/06 10:07:38;;;;;;;43.55;14.80;;;;;;;;;;5031442;28;20175;-47
2023/02/06 10:10:10;;;;;;;38.25;14.15;;;;;;;;;;5030916;28;20168;-46
2023/02/06 10:12:45;;;;;;;44.47;15.18;;;;;;;;;;5031960;28;20207;-47
2023/02/06 10:15:17;;;;;;;45.38;12.80;;;;;;;;;;5031086;28;20195;-47
2023/02/06 10:17:51;;;;;;;47.67;13.70;;;;;;;;;;5088125;22;20228;-48
2023/02/06 10:20:19;;;;;;;46.10;15.20;;;;;;;;;;5071527;28;20385;-46
2023/02/06 10:23:04;;;;;;;31.60;13.75;;;;;;;;;;5071936;28;20538;-48
2023/02/06 10:25:32;;;;;;;37.15;14.25;;;;;;;;;;5071055;28;20243;-46
2023/02/06 10:28:07;;;;;;;40.42;13.18;;;;;;;;;;5071553;28;20202;-46
2023/02/06 10:30:39;;;;;;;28.35;12.20;;;;;;;;;;5071461;28;20170;-46
2023/02/06 10:33:11;;;;;;;25.17;11.80;;;;;;;;;;5071693;28;20550;-47
2023/02/06 10:36:07;;;;;;;41.40;14.20;;;;;;;;;;5070840;28;20628;-48
2023/02/06 10:38:37;;;;;;;31.83;13.00;;;;;;;;;;5017167;28;20214;-47
2023/02/06 10:41:22;;;;;;;28.85;14.23;;;;;;;;;;5071249;28;20906;-46
2023/02/06 10:43:54;;;;;;;33.25;11.55;;;;;;;;;;5074028;28;20688;-48
2023/02/06 10:46:35;;;;;;;31.67;12.40;;;;;;;;;;5077678;28;20561;-47
2023/02/06 10:49:01;;;;;;;37.03;12.67;;;;;;;;;;5078183;28;20885;-47
2023/02/06 10:51:34;;;;;;;35.00;12.80;;;;;;;;;;5080827;28;20403;-45
2023/02/06 10:54:02;;;;;;;36.50;12.20;;;;;;;;;;5097647;28;20934;-46
2023/02/06 10:56:29;;;;;;;31.30;12.17;;;;;;;;;;5098371;28;20461;-47
2023/02/06 10:58:57;;;;;;;27.63;9.70;;;;;;;;;;5098392;28;20905;-47
2023/02/06 11:01:24;;;;;;;27.70;10.07;;;;;;;;;;5098348;28;20398;-48
2023/02/06 11:04:04;;;;;;;20.80;9.63;;;;;;;;;;5097560;28;20403;-47
2023/02/06 11:06:30;;;;;;;12.73;7.57;;;;;;;;;;5098351;28;20420;-48
2023/02/06 11:08:56;;;;;;;23.97;10.43;;;;;;;;;;5098268;28;20402;-48
2023/02/06 11:11:28;;;;;;;21.10;8.63;;;;;;;;;;5098200;28;20394;-47
2023/02/06 11:14:03;;;;;;;15.10;8.33;;;;;;;;;;5097427;28;20901;-48
2023/02/06 11:16:30;;;;;;;20.90;9.00;;;;;;;;;;5097574;28;20465;-47
2023/02/06 11:18:58;;;;;;;15.00;7.80;;;;;;;;;;5098192;28;20420;-46
2023/02/06 11:21:50;;;;;;;19.63;8.70;;;;;;;;;;5098294;28;20456;-46
2023/02/06 11:24:18;;;;;;;15.43;8.07;;;;;;;;;;5095478;28;20416;-46
2023/02/06 11:26:50;;;;;;;21.23;9.37;;;;;;;;;;5097806;28;20413;-45
2023/02/06 11:29:21;;;;;;;17.37;8.97;;;;;;;;;;5098007;28;20928;-47
2023/02/06 11:31:53;;;;;;;17.73;9.47;;;;;;;;;;5097902;28;20429;-47
2023/02/06 11:34:23;;;;;;;21.50;9.87;;;;;;;;;;5097491;28;20472;-45
2023/02/06 11:36:59;;;;;;;20.53;11.90;;;;;;;;;;5097717;28;20538;-46
2023/02/06 11:39:30;;;;;;;27.83;13.10;;;;;;;;;;5097685;28;20408;-46
2023/02/06 11:41:56;;;;;;;32.93;12.00;;;;;;;;;;5097834;28;20450;-46
2023/02/06 11:44:24;;;;;;;24.23;12.33;;;;;;;;;;5097191;28;20900;-46
2023/02/06 11:46:50;;;;;;;37.00;12.77;;;;;;;;;;5097868;28;20923;-46
2023/02/06 11:49:18;;;;;;;31.63;12.10;;;;;;;;;;5097891;28;20405;-45
2023/02/06 11:51:46;;;;;;;30.43;10.77;;;;;;;;;;5092436;28;20471;-45
2023/02/06 11:54:27;;;;;;;31.70;12.27;;;;;;;;;;5076219;28;20404;-45
2023/02/06 11:56:56;;;;;;;30.53;11.63;;;;;;;;;;5073320;28;20472;-45
2023/02/06 11:59:23;;;;;;;34.87;12.43;;;;;;;;;;5074211;28;20474;-46
2023/02/06 12:01:49;;;;;;;27.90;9.57;;;;;;;;;;5074255;28;20415;-45
2023/02/06 12:04:33;;;;;;;22.07;9.83;;;;;;;;;;5073377;28;20401;-46
2023/02/06 12:07:20;;;;;;;29.73;11.50;;;;;;;;;;5074051;28;20416;-46
2023/02/06 12:09:46;;;;;;;26.03;10.27;;;;;;;;;;5063726;28;20420;-46
2023/02/06 12:12:15;;;;;;;24.80;9.80;;;;;;;;;;5074187;28;20401;-46
2023/02/06 12:14:59;;;;;;;29.50;10.00;;;;;;;;;;5073264;28;20510;-47
2023/02/06 12:17:32;;;;;;;28.13;10.10;;;;;;;;;;5073789;28;20431;-48
2023/02/06 12:20:01;;;;;;;22.70;10.87;;;;;;;;;;5074218;28;20482;-48
2023/02/06 12:22:27;;;;;;;26.00;10.40;;;;;;;;;;5074031;28;20397;-48
2023/02/06 12:24:55;;;;;;;31.73;11.27;;;;;;;;;;5073323;28;20397;-47
2023/02/06 12:27:33;;;;;;;46.20;13.40;;;;;;;;;;5073743;28;20417;-46
2023/02/06 12:30:03;;;;;;;29.02;12.25;;;;;;;;;;5073828;28;20396;-45
2023/02/06 12:32:32;;;;;;;43.45;14.65;;;;;;;;;;5074075;28;20163;-45
2023/02/06 12:35:01;;;;;;;38.47;12.07;;;;;;;;;;5072905;28;20197;-45
2023/02/06 12:37:34;;;;;;;29.67;11.80;;;;;;;;;;5073674;28;20595;-48
2023/02/06 12:40:00;;;;;;;23.90;10.73;;;;;;;;;;5073595;28;20169;-47
2023/02/06 12:42:33;;;;;;;26.73;8.40;;;;;;;;;;5073437;28;20393;-47
2023/02/06 12:45:31;;;;;;;18.35;9.02;;;;;;;;;;5072705;28;20435;-47
2023/02/06 12:48:02;;;;;;;30.63;8.20;;;;;;;;;;5073530;28;20182;-46
2023/02/06 12:50:32;;;;;;;30.17;9.77;;;;;;;;;;5073416;28;20860;-46
2023/02/06 12:53:06;;;;;;;16.77;7.80;;;;;;;;;;5088890;28;21068;-46
2023/02/06 12:55:37;;;;;;;19.25;8.10;;;;;;;;;;5092761;28;20695;-46
2023/02/06 12:58:03;;;;;;;17.02;7.28;;;;;;;;;;5093343;28;20552;-46
2023/02/06 13:00:30;;;;;;;17.92;7.38;;;;;;;;;;5093530;28;20191;-46
2023/02/06 13:03:15;;;;;;;11.00;7.00;;;;;;;;;;5093347;28;20500;-47
2023/02/06 13:05:43;;;;;;;20.67;8.07;;;;;;;;;;5092650;28;20871;-47
2023/02/06 13:08:13;;;;;;;16.10;7.75;;;;;;;;;;5093174;28;20563;-47
2023/02/06 13:10:40;;;;;;;17.55;9.48;;;;;;;;;;5093365;28;20621;-47
2023/02/06 13:13:06;;;;;;;16.60;8.00;;;;;;;;;;5093215;28;20191;-47
2023/02/06 13:15:38;;;;;;;21.00;8.63;;;;;;;;;;5092407;28;20809;-47
2023/02/06 13:18:27;;;;;;;12.90;7.60;;;;;;;;;;5093002;28;20447;-49
2023/02/06 13:21:12;;;;;;;17.33;7.80;;;;;;;;;;5087999;28;20401;-46
2023/02/06 13:23:48;;;;;;;19.65;9.38;;;;;;;;;;5072261;28;20393;-46
2023/02/06 13:26:14;;;;;;;16.97;9.17;;;;;;;;;;5072645;28;20250;-47
2023/02/06 13:28:40;;;;;;;17.33;7.53;;;;;;;;;;5072594;28;20398;-49
2023/02/06 13:31:19;;;;;;;13.27;7.80;;;;;;;;;;5072630;28;20897;-48
2023/02/06 13:33:53;;;;;;;18.03;8.57;;;;;;;;;;5071933;28;20430;-48
2023/02/06 13:36:27;;;;;;;30.40;9.53;;;;;;;;;;5072164;28;20538;-48
2023/02/06 13:38:56;;;;;;;15.13;7.83;;;;;;;;;;5072500;28;20403;-46
2023/02/06 13:41:29;;;;;;;22.80;9.20;;;;;;;;;;5072246;28;20897;-46
2023/02/06 13:44:11;;;;;;;13.33;8.07;;;;;;;;;;5071685;28;20407;-47
2023/02/06 13:46:49;;;;;;;20.90;9.17;;;;;;;;;;5071597;28;20422;-47
2023/02/06 13:49:15;;;;;;;20.17;8.80;;;;;;;;;;5072475;28;20785;-46
2023/02/06 13:51:41;;;;;;;15.40;7.90;;;;;;;;;;5077081;28;20406;-46
2023/02/06 13:54:27;;;;;;;13.07;7.50;;;;;;;;;;5091824;28;20408;-47
2023/02/06 13:57:09;;;;;;;21.07;9.00;;;;;;;;;;5070889;28;20464;-45
2023/02/06 13:59:37;;;;;;;14.20;7.50;;;;;;;;;;5091327;28;20403;-46
2023/02/06 14:02:21;;;;;;;16.07;8.07;;;;;;;;;;5090702;28;20442;-47
2023/02/06 14:04:48;;;;;;;26.13;8.63;;;;;;;;;;5091761;28;20454;-47
2023/02/06 14:07:32;;;;;;;18.23;9.13;;;;;;;;;;5090634;28;20491;-48
2023/02/06 14:10:19;;;;;;;21.30;8.67;;;;;;;;;;5092222;28;20411;-47
2023/02/06 14:13:02;;;;;;;20.40;7.83;;;;;;;;;;5092225;28;20402;-48
2023/02/06 14:15:35;;;;;;;17.73;8.53;;;;;;;;;;5091524;28;21010;-48
2023/02/06 14:18:07;;;;;;;19.80;8.90;;;;;;;;;;5091118;28;20504;-47
2023/02/06 14:20:33;;;;;;;19.67;9.13;;;;;;;;;;5092171;28;20400;-46
2023/02/06 14:23:04;;;;;;;16.47;8.07;;;;;;;;;;5092300;28;20168;-46
2023/02/06 14:25:33;;;;;;;21.83;9.20;;;;;;;;;;5091396;28;20399;-47
2023/02/06 14:28:05;;;;;;;25.20;9.35;;;;;;;;;;5092014;28;20415;-45
2023/02/06 14:30:49;;;;;;;20.47;9.50;;;;;;;;;;5092494;28;20192;-47
2023/02/06 14:33:15;;;;;;;23.20;10.55;;;;;;;;;;5091988;28;20387;-45
2023/02/06 14:35:53;;;;;;;31.00;9.80;;;;;;;;;;5091395;28;20342;-47
2023/02/06 14:38:25;;;;;;;23.70;9.80;;;;;;;;;;5091819;28;20392;-47